Mc Connell Air Force Base Wichita US
ICAO: KIAB
IATA: IAB
Category: Medium
Scheduled Services: No

Elevation: 1371 ft
TransAlt. 18000 ft.

Airport Communications:
KS ANG OPS:30.16
WICHITA APP:120.6
ATIS:124.65
WICHITA DEP:120.6
GND:118
PMSV METRO:37.52
COMD POST:31.1
PTD:37.22
BOEING GND:123.125
TWR:127.25

KIAB Zoom In..

Runways:

(A) RW 01L length 12000 ft width 150 ft
ILS 111.10 / hdg 8

(B) RW 01R length 12000 ft width 150 ft
---- / hdg 8

(C) RW 19L length 12000 ft width 150 ft
---- / hdg 188

(D) RW 19R length 12000 ft width 150 ft
ILS 109.90 / hdg 188

Location; KIAB
Day. 21 / Time. 23.56 Zulu
* Altimeter: 30.14
* Temperature: 23° c. 73.4°f.
* Wind from: 180° Speed 07 kn.
Dewpoint: 12° c.
Visibility: 10 Statute Miles.
Clouds: Clear (automated report).

KIAB 212356Z AUTO 18007KT 10SM CLR 23/12 A3014 RMK AO2 SLP202 T02320122 10263 20232 55003

Going to: --> -->


Wind From 180°
Speed 07 kn.

 
 
jpsmedia worldairports.se 2020   terms of use